sensor_id;sensor_type;location;lat;lon;timestamp;P1;durP1;ratioP1;P2;durP2;ratioP2
11807;SDS011;5961;42.640;23.380;2023-07-02T00:01:44;8.43;;;5.70;;
11807;SDS011;5961;42.640;23.380;2023-07-02T00:04:11;10.23;;;5.40;;
11807;SDS011;5961;42.640;23.380;2023-07-02T00:06:41;10.27;;;5.78;;
11807;SDS011;5961;42.640;23.380;2023-07-02T00:09:08;9.03;;;5.37;;
11807;SDS011;5961;42.640;23.380;2023-07-02T00:11:35;7.53;;;5.90;;
11807;SDS011;5961;42.640;23.380;2023-07-02T00:14:04;9.07;;;5.77;;
11807;SDS011;5961;42.640;23.380;2023-07-02T00:16:31;9.73;;;5.57;;
11807;SDS011;5961;42.640;23.380;2023-07-02T00:18:58;7.47;;;5.17;;
11807;SDS011;5961;42.640;23.380;2023-07-02T00:21:25;9.63;;;5.75;;
11807;SDS011;5961;42.640;23.380;2023-07-02T00:23:53;7.68;;;5.95;;
11807;SDS011;5961;42.640;23.380;2023-07-02T00:26:22;8.18;;;5.45;;
11807;SDS011;5961;42.640;23.380;2023-07-02T00:28:50;8.77;;;5.80;;
11807;SDS011;5961;42.640;23.380;2023-07-02T00:31:18;8.70;;;5.80;;
11807;SDS011;5961;42.640;23.380;2023-07-02T00:33:45;9.67;;;5.60;;
11807;SDS011;5961;42.640;23.380;2023-07-02T00:36:12;9.50;;;5.90;;
11807;SDS011;5961;42.640;23.380;2023-07-02T00:38:40;7.50;;;5.80;;
11807;SDS011;5961;42.640;23.380;2023-07-02T00:41:07;8.32;;;6.03;;
11807;SDS011;5961;42.640;23.380;2023-07-02T00:43:34;6.77;;;5.47;;
11807;SDS011;5961;42.640;23.380;2023-07-02T00:46:01;8.50;;;6.10;;
11807;SDS011;5961;42.640;23.380;2023-07-02T00:48:30;9.80;;;6.03;;
11807;SDS011;5961;42.640;23.380;2023-07-02T00:50:58;7.77;;;5.50;;
11807;SDS011;5961;42.640;23.380;2023-07-02T00:53:24;8.67;;;5.87;;
11807;SDS011;5961;42.640;23.380;2023-07-02T00:55:51;9.93;;;5.80;;
11807;SDS011;5961;42.640;23.380;2023-07-02T00:58:18;11.37;;;6.73;;
11807;SDS011;5961;42.640;23.380;2023-07-02T01:00:46;13.07;;;7.10;;
11807;SDS011;5961;42.640;23.380;2023-07-02T01:03:13;11.37;;;7.30;;
11807;SDS011;5961;42.640;23.380;2023-07-02T01:05:41;15.23;;;6.93;;
11807;SDS011;5961;42.640;23.380;2023-07-02T01:08:07;9.63;;;7.13;;
11807;SDS011;5961;42.640;23.380;2023-07-02T01:10:35;12.87;;;7.33;;
11807;SDS011;5961;42.640;23.380;2023-07-02T01:13:04;10.57;;;6.63;;
11807;SDS011;5961;42.640;23.380;2023-07-02T01:15:34;10.83;;;7.40;;
11807;SDS011;5961;42.640;23.380;2023-07-02T01:18:03;14.00;;;7.30;;
11807;SDS011;5961;42.640;23.380;2023-07-02T01:20:31;11.10;;;8.23;;
11807;SDS011;5961;42.640;23.380;2023-07-02T01:23:01;13.50;;;8.80;;
11807;SDS011;5961;42.640;23.380;2023-07-02T01:25:28;14.97;;;8.70;;
11807;SDS011;5961;42.640;23.380;2023-07-02T01:27:55;13.50;;;8.20;;
11807;SDS011;5961;42.640;23.380;2023-07-02T01:30:23;10.20;;;8.20;;
11807;SDS011;5961;42.640;23.380;2023-07-02T01:32:50;10.37;;;8.20;;
11807;SDS011;5961;42.640;23.380;2023-07-02T01:35:17;12.13;;;7.33;;
11807;SDS011;5961;42.640;23.380;2023-07-02T01:37:45;12.17;;;7.53;;
11807;SDS011;5961;42.640;23.380;2023-07-02T01:40:12;9.67;;;6.83;;
11807;SDS011;5961;42.640;23.380;2023-07-02T01:42:39;10.03;;;7.40;;
11807;SDS011;5961;42.640;23.380;2023-07-02T01:45:06;9.80;;;6.50;;
11807;SDS011;5961;42.640;23.380;2023-07-02T01:47:33;11.97;;;7.23;;
11807;SDS011;5961;42.640;23.380;2023-07-02T01:50:00;10.00;;;6.43;;
11807;SDS011;5961;42.640;23.380;2023-07-02T01:52:28;9.63;;;6.60;;
11807;SDS011;5961;42.640;23.380;2023-07-02T01:54:59;8.97;;;5.87;;
11807;SDS011;5961;42.640;23.380;2023-07-02T01:57:26;8.20;;;6.30;;
11807;SDS011;5961;42.640;23.380;2023-07-02T01:59:53;8.87;;;6.13;;
11807;SDS011;5961;42.640;23.380;2023-07-02T02:02:19;10.10;;;6.43;;
11807;SDS011;5961;42.640;23.380;2023-07-02T02:04:46;9.90;;;6.00;;
11807;SDS011;5961;42.640;23.380;2023-07-02T02:07:13;8.77;;;6.50;;
11807;SDS011;5961;42.640;23.380;2023-07-02T02:09:39;7.97;;;6.37;;
11807;SDS011;5961;42.640;23.380;2023-07-02T02:12:08;9.33;;;6.33;;
11807;SDS011;5961;42.640;23.380;2023-07-02T02:14:35;8.03;;;6.40;;
11807;SDS011;5961;42.640;23.380;2023-07-02T02:17:02;9.00;;;6.73;;
11807;SDS011;5961;42.640;23.380;2023-07-02T02:19:29;9.47;;;7.27;;
11807;SDS011;5961;42.640;23.380;2023-07-02T02:21:55;9.97;;;6.60;;
11807;SDS011;5961;42.640;23.380;2023-07-02T02:24:22;9.53;;;7.20;;
11807;SDS011;5961;42.640;23.380;2023-07-02T02:26:49;13.93;;;7.03;;
11807;SDS011;5961;42.640;23.380;2023-07-02T02:29:17;8.60;;;6.73;;
11807;SDS011;5961;42.640;23.380;2023-07-02T02:31:43;11.20;;;7.00;;
11807;SDS011;5961;42.640;23.380;2023-07-02T02:34:10;9.60;;;6.87;;
11807;SDS011;5961;42.640;23.380;2023-07-02T02:36:37;12.37;;;7.57;;
11807;SDS011;5961;42.640;23.380;2023-07-02T02:39:03;10.50;;;6.93;;
11807;SDS011;5961;42.640;23.380;2023-07-02T02:41:30;12.83;;;7.67;;
11807;SDS011;5961;42.640;23.380;2023-07-02T02:43:57;11.70;;;7.27;;
11807;SDS011;5961;42.640;23.380;2023-07-02T02:46:25;11.83;;;7.40;;
11807;SDS011;5961;42.640;23.380;2023-07-02T02:48:52;10.43;;;6.87;;
11807;SDS011;5961;42.640;23.380;2023-07-02T02:51:18;9.77;;;7.03;;
11807;SDS011;5961;42.640;23.380;2023-07-02T02:53:45;8.90;;;6.70;;
11807;SDS011;5961;42.640;23.380;2023-07-02T02:56:12;10.77;;;7.10;;
11807;SDS011;5961;42.640;23.380;2023-07-02T02:58:39;10.03;;;6.93;;
11807;SDS011;5961;42.640;23.380;2023-07-02T03:01:06;10.60;;;6.43;;
11807;SDS011;5961;42.640;23.380;2023-07-02T03:03:36;8.77;;;6.27;;
11807;SDS011;5961;42.640;23.380;2023-07-02T03:06:04;11.97;;;7.10;;
11807;SDS011;5961;42.640;23.380;2023-07-02T03:08:31;10.57;;;7.20;;
11807;SDS011;5961;42.640;23.380;2023-07-02T03:10:58;11.10;;;6.33;;
11807;SDS011;5961;42.640;23.380;2023-07-02T03:13:24;12.37;;;7.37;;
11807;SDS011;5961;42.640;23.380;2023-07-02T03:15:51;11.63;;;6.63;;
11807;SDS011;5961;42.640;23.380;2023-07-02T03:18:18;8.83;;;6.67;;
11807;SDS011;5961;42.640;23.380;2023-07-02T03:20:46;10.27;;;6.60;;
11807;SDS011;5961;42.640;23.380;2023-07-02T03:23:13;11.37;;;7.50;;
11807;SDS011;5961;42.640;23.380;2023-07-02T03:25:39;11.00;;;6.50;;
11807;SDS011;5961;42.640;23.380;2023-07-02T03:28:06;9.47;;;7.07;;
11807;SDS011;5961;42.640;23.380;2023-07-02T03:30:33;11.03;;;7.30;;
11807;SDS011;5961;42.640;23.380;2023-07-02T03:32:59;12.50;;;6.90;;
11807;SDS011;5961;42.640;23.380;2023-07-02T03:35:26;10.30;;;6.70;;
11807;SDS011;5961;42.640;23.380;2023-07-02T03:37:54;11.43;;;7.20;;
11807;SDS011;5961;42.640;23.380;2023-07-02T03:40:22;10.93;;;6.80;;
11807;SDS011;5961;42.640;23.380;2023-07-02T03:42:49;10.97;;;7.00;;
11807;SDS011;5961;42.640;23.380;2023-07-02T03:45:16;11.97;;;7.20;;
11807;SDS011;5961;42.640;23.380;2023-07-02T03:47:42;10.83;;;7.33;;
11807;SDS011;5961;42.640;23.380;2023-07-02T03:50:09;9.47;;;6.90;;
11807;SDS011;5961;42.640;23.380;2023-07-02T03:52:36;12.90;;;6.97;;
11807;SDS011;5961;42.640;23.380;2023-07-02T03:55:05;9.63;;;6.57;;
11807;SDS011;5961;42.640;23.380;2023-07-02T03:57:32;10.53;;;7.40;;
11807;SDS011;5961;42.640;23.380;2023-07-02T03:59:58;9.53;;;6.90;;
11807;SDS011;5961;42.640;23.380;2023-07-02T04:02:25;10.57;;;6.73;;
11807;SDS011;5961;42.640;23.380;2023-07-02T04:04:52;10.13;;;6.97;;
11807;SDS011;5961;42.640;23.380;2023-07-02T04:07:19;10.23;;;6.47;;
11807;SDS011;5961;42.640;23.380;2023-07-02T04:09:45;12.23;;;7.27;;
11807;SDS011;5961;42.640;23.380;2023-07-02T04:12:13;12.17;;;7.60;;
11807;SDS011;5961;42.640;23.380;2023-07-02T04:14:40;11.03;;;7.40;;
11807;SDS011;5961;42.640;23.380;2023-07-02T04:17:07;14.00;;;7.43;;
11807;SDS011;5961;42.640;23.380;2023-07-02T04:19:34;9.83;;;6.93;;
11807;SDS011;5961;42.640;23.380;2023-07-02T04:22:00;13.03;;;7.97;;
11807;SDS011;5961;42.640;23.380;2023-07-02T04:24:27;13.23;;;8.47;;
11807;SDS011;5961;42.640;23.380;2023-07-02T04:26:54;12.50;;;8.30;;
11807;SDS011;5961;42.640;23.380;2023-07-02T04:29:22;11.17;;;7.13;;
11807;SDS011;5961;42.640;23.380;2023-07-02T04:31:49;10.73;;;7.47;;
11807;SDS011;5961;42.640;23.380;2023-07-02T04:34:15;10.77;;;6.63;;
11807;SDS011;5961;42.640;23.380;2023-07-02T04:36:42;9.03;;;7.03;;
11807;SDS011;5961;42.640;23.380;2023-07-02T04:39:09;10.87;;;7.47;;
11807;SDS011;5961;42.640;23.380;2023-07-02T04:41:36;11.73;;;7.10;;
11807;SDS011;5961;42.640;23.380;2023-07-02T04:44:03;12.87;;;8.33;;
11807;SDS011;5961;42.640;23.380;2023-07-02T04:46:31;14.60;;;8.90;;
11807;SDS011;5961;42.640;23.380;2023-07-02T04:48:58;10.60;;;7.63;;
11807;SDS011;5961;42.640;23.380;2023-07-02T04:51:24;11.03;;;6.87;;
11807;SDS011;5961;42.640;23.380;2023-07-02T04:53:51;10.87;;;6.97;;
11807;SDS011;5961;42.640;23.380;2023-07-02T04:56:18;10.53;;;7.03;;
11807;SDS011;5961;42.640;23.380;2023-07-02T04:58:44;15.97;;;7.50;;
11807;SDS011;5961;42.640;23.380;2023-07-02T05:01:11;12.73;;;8.77;;
11807;SDS011;5961;42.640;23.380;2023-07-02T05:03:39;10.27;;;7.57;;
11807;SDS011;5961;42.640;23.380;2023-07-02T05:06:06;15.17;;;8.57;;
11807;SDS011;5961;42.640;23.380;2023-07-02T05:08:33;11.83;;;8.03;;
11807;SDS011;5961;42.640;23.380;2023-07-02T05:10:59;11.10;;;8.10;;
11807;SDS011;5961;42.640;23.380;2023-07-02T05:13:26;11.43;;;8.43;;
11807;SDS011;5961;42.640;23.380;2023-07-02T05:15:53;13.17;;;8.17;;
11807;SDS011;5961;42.640;23.380;2023-07-02T05:18:19;10.60;;;8.07;;
11807;SDS011;5961;42.640;23.380;2023-07-02T05:20:47;13.20;;;8.23;;
11807;SDS011;5961;42.640;23.380;2023-07-02T05:23:14;14.10;;;7.93;;
11807;SDS011;5961;42.640;23.380;2023-07-02T05:25:41;10.60;;;7.20;;
11807;SDS011;5961;42.640;23.380;2023-07-02T05:28:07;13.57;;;10.00;;
11807;SDS011;5961;42.640;23.380;2023-07-02T05:30:34;10.63;;;8.83;;
11807;SDS011;5961;42.640;23.380;2023-07-02T05:33:01;13.60;;;7.90;;
11807;SDS011;5961;42.640;23.380;2023-07-02T05:35:27;13.50;;;8.03;;
11807;SDS011;5961;42.640;23.380;2023-07-02T05:37:55;12.03;;;7.93;;
11807;SDS011;5961;42.640;23.380;2023-07-02T05:40:22;12.43;;;8.23;;
11807;SDS011;5961;42.640;23.380;2023-07-02T05:42:49;14.67;;;8.67;;
11807;SDS011;5961;42.640;23.380;2023-07-02T05:45:15;11.93;;;7.73;;
11807;SDS011;5961;42.640;23.380;2023-07-02T05:47:42;14.20;;;8.60;;
11807;SDS011;5961;42.640;23.380;2023-07-02T05:50:09;10.17;;;8.03;;
11807;SDS011;5961;42.640;23.380;2023-07-02T05:52:35;12.10;;;8.30;;
11807;SDS011;5961;42.640;23.380;2023-07-02T05:55:04;14.77;;;9.30;;
11807;SDS011;5961;42.640;23.380;2023-07-02T05:57:31;12.77;;;9.70;;
11807;SDS011;5961;42.640;23.380;2023-07-02T05:59:58;12.83;;;9.40;;
11807;SDS011;5961;42.640;23.380;2023-07-02T06:02:24;11.70;;;7.47;;
11807;SDS011;5961;42.640;23.380;2023-07-02T06:04:51;13.90;;;7.93;;
11807;SDS011;5961;42.640;23.380;2023-07-02T06:07:18;13.50;;;8.10;;
11807;SDS011;5961;42.640;23.380;2023-07-02T06:09:45;12.30;;;7.50;;
11807;SDS011;5961;42.640;23.380;2023-07-02T06:12:13;10.13;;;7.10;;
11807;SDS011;5961;42.640;23.380;2023-07-02T06:14:39;10.13;;;7.27;;
11807;SDS011;5961;42.640;23.380;2023-07-02T06:17:06;10.03;;;7.40;;
11807;SDS011;5961;42.640;23.380;2023-07-02T06:19:35;10.83;;;7.60;;
11807;SDS011;5961;42.640;23.380;2023-07-02T06:22:03;11.10;;;7.77;;
11807;SDS011;5961;42.640;23.380;2023-07-02T06:24:30;9.77;;;6.70;;
11807;SDS011;5961;42.640;23.380;2023-07-02T06:26:57;13.03;;;6.80;;
11807;SDS011;5961;42.640;23.380;2023-07-02T06:29:25;14.00;;;7.67;;
11807;SDS011;5961;42.640;23.380;2023-07-02T06:31:53;10.00;;;6.83;;
11807;SDS011;5961;42.640;23.380;2023-07-02T06:34:20;11.03;;;7.40;;
11807;SDS011;5961;42.640;23.380;2023-07-02T06:36:47;12.03;;;7.47;;
11807;SDS011;5961;42.640;23.380;2023-07-02T06:39:14;13.40;;;9.93;;
11807;SDS011;5961;42.640;23.380;2023-07-02T06:41:41;11.77;;;7.67;;
11807;SDS011;5961;42.640;23.380;2023-07-02T06:44:07;11.30;;;7.23;;
11807;SDS011;5961;42.640;23.380;2023-07-02T06:46:35;12.68;;;7.50;;
11807;SDS011;5961;42.640;23.380;2023-07-02T06:49:02;10.40;;;7.30;;
11807;SDS011;5961;42.640;23.380;2023-07-02T06:51:29;12.13;;;7.60;;
11807;SDS011;5961;42.640;23.380;2023-07-02T06:53:55;10.65;;;7.22;;
11807;SDS011;5961;42.640;23.380;2023-07-02T06:56:22;12.00;;;7.88;;
11807;SDS011;5961;42.640;23.380;2023-07-02T06:58:49;13.77;;;7.73;;
11807;SDS011;5961;42.640;23.380;2023-07-02T07:01:16;10.20;;;7.63;;
11807;SDS011;5961;42.640;23.380;2023-07-02T07:03:44;12.45;;;7.65;;
11807;SDS011;5961;42.640;23.380;2023-07-02T07:06:11;10.35;;;7.00;;
11807;SDS011;5961;42.640;23.380;2023-07-02T07:08:38;14.07;;;7.70;;
11807;SDS011;5961;42.640;23.380;2023-07-02T07:11:05;15.20;;;7.73;;
11807;SDS011;5961;42.640;23.380;2023-07-02T07:13:31;14.40;;;7.67;;
11807;SDS011;5961;42.640;23.380;2023-07-02T07:15:58;11.65;;;7.00;;
11807;SDS011;5961;42.640;23.380;2023-07-02T07:18:25;13.25;;;8.00;;
11807;SDS011;5961;42.640;23.380;2023-07-02T07:20:53;17.53;;;8.27;;
11807;SDS011;5961;42.640;23.380;2023-07-02T07:23:21;15.02;;;7.80;;
11807;SDS011;5961;42.640;23.380;2023-07-02T07:25:47;13.10;;;8.88;;
11807;SDS011;5961;42.640;23.380;2023-07-02T07:28:14;15.82;;;9.32;;
11807;SDS011;5961;42.640;23.380;2023-07-02T07:30:41;13.63;;;8.10;;
11807;SDS011;5961;42.640;23.380;2023-07-02T07:33:08;15.88;;;8.75;;
11807;SDS011;5961;42.640;23.380;2023-07-02T07:35:35;14.07;;;8.48;;
11807;SDS011;5961;42.640;23.380;2023-07-02T07:38:04;16.60;;;10.68;;
11807;SDS011;5961;42.640;23.380;2023-07-02T07:40:30;16.38;;;10.23;;
11807;SDS011;5961;42.640;23.380;2023-07-02T07:42:57;22.70;;;15.63;;
11807;SDS011;5961;42.640;23.380;2023-07-02T07:45:24;20.05;;;14.20;;
11807;SDS011;5961;42.640;23.380;2023-07-02T07:47:51;13.00;;;9.20;;
11807;SDS011;5961;42.640;23.380;2023-07-02T07:50:17;11.30;;;7.88;;
11807;SDS011;5961;42.640;23.380;2023-07-02T07:52:44;18.33;;;11.95;;
11807;SDS011;5961;42.640;23.380;2023-07-02T07:55:12;15.20;;;11.43;;
11807;SDS011;5961;42.640;23.380;2023-07-02T07:57:39;14.23;;;9.73;;
11807;SDS011;5961;42.640;23.380;2023-07-02T08:00:06;15.80;;;10.32;;
11807;SDS011;5961;42.640;23.380;2023-07-02T08:02:34;17.95;;;12.30;;
11807;SDS011;5961;42.640;23.380;2023-07-02T08:05:01;19.17;;;13.70;;
11807;SDS011;5961;42.640;23.380;2023-07-02T08:07:28;13.25;;;8.25;;
11807;SDS011;5961;42.640;23.380;2023-07-02T08:09:55;11.68;;;6.95;;
11807;SDS011;5961;42.640;23.380;2023-07-02T08:12:23;9.32;;;7.22;;
11807;SDS011;5961;42.640;23.380;2023-07-02T08:14:51;10.13;;;6.82;;
11807;SDS011;5961;42.640;23.380;2023-07-02T08:17:18;10.73;;;7.60;;
11807;SDS011;5961;42.640;23.380;2023-07-02T08:19:45;12.90;;;7.78;;
11807;SDS011;5961;42.640;23.380;2023-07-02T08:22:12;13.63;;;7.65;;
11807;SDS011;5961;42.640;23.380;2023-07-02T08:24:39;11.23;;;7.95;;
11807;SDS011;5961;42.640;23.380;2023-07-02T08:27:05;10.30;;;7.25;;
11807;SDS011;5961;42.640;23.380;2023-07-02T08:29:34;10.95;;;7.35;;
11807;SDS011;5961;42.640;23.380;2023-07-02T08:32:00;9.38;;;7.35;;
11807;SDS011;5961;42.640;23.380;2023-07-02T08:34:27;10.48;;;7.53;;
11807;SDS011;5961;42.640;23.380;2023-07-02T08:36:54;8.98;;;6.72;;
11807;SDS011;5961;42.640;23.380;2023-07-02T08:39:20;8.52;;;6.90;;
11807;SDS011;5961;42.640;23.380;2023-07-02T08:41:47;10.35;;;7.13;;
11807;SDS011;5961;42.640;23.380;2023-07-02T08:44:16;10.85;;;7.80;;
11807;SDS011;5961;42.640;23.380;2023-07-02T08:46:48;9.20;;;6.18;;
11807;SDS011;5961;42.640;23.380;2023-07-02T08:49:16;12.35;;;9.60;;
11807;SDS011;5961;42.640;23.380;2023-07-02T08:51:44;12.10;;;7.20;;
11807;SDS011;5961;42.640;23.380;2023-07-02T08:54:11;11.35;;;7.20;;
11807;SDS011;5961;42.640;23.380;2023-07-02T08:56:38;10.63;;;6.50;;
11807;SDS011;5961;42.640;23.380;2023-07-02T08:59:06;15.90;;;9.90;;
11807;SDS011;5961;42.640;23.380;2023-07-02T09:01:43;12.55;;;8.00;;
11807;SDS011;5961;42.640;23.380;2023-07-02T09:04:15;9.73;;;6.53;;
11807;SDS011;5961;42.640;23.380;2023-07-02T09:06:45;9.95;;;7.10;;
11807;SDS011;5961;42.640;23.380;2023-07-02T09:09:12;10.95;;;6.38;;
11807;SDS011;5961;42.640;23.380;2023-07-02T09:11:46;10.75;;;6.93;;
11807;SDS011;5961;42.640;23.380;2023-07-02T09:14:23;9.93;;;6.50;;
11807;SDS011;5961;42.640;23.380;2023-07-02T09:17:00;11.90;;;6.97;;
11807;SDS011;5961;42.640;23.380;2023-07-02T09:19:29;10.63;;;7.57;;
11807;SDS011;5961;42.640;23.380;2023-07-02T09:21:57;12.43;;;7.47;;
11807;SDS011;5961;42.640;23.380;2023-07-02T09:24:25;10.63;;;7.70;;
11807;SDS011;5961;42.640;23.380;2023-07-02T09:26:53;11.30;;;7.80;;
11807;SDS011;5961;42.640;23.380;2023-07-02T09:29:22;11.52;;;8.00;;
11807;SDS011;5961;42.640;23.380;2023-07-02T09:31:49;10.00;;;8.57;;
11807;SDS011;5961;42.640;23.380;2023-07-02T09:34:17;9.30;;;6.88;;
11807;SDS011;5961;42.640;23.380;2023-07-02T09:36:45;9.35;;;7.32;;
11807;SDS011;5961;42.640;23.380;2023-07-02T09:39:12;10.48;;;6.85;;
11807;SDS011;5961;42.640;23.380;2023-07-02T09:41:40;9.52;;;7.00;;
11807;SDS011;5961;42.640;23.380;2023-07-02T09:44:08;11.55;;;7.07;;
11807;SDS011;5961;42.640;23.380;2023-07-02T09:46:36;11.73;;;7.05;;
11807;SDS011;5961;42.640;23.380;2023-07-02T09:49:08;9.32;;;7.47;;
11807;SDS011;5961;42.640;23.380;2023-07-02T09:51:40;8.88;;;6.68;;
11807;SDS011;5961;42.640;23.380;2023-07-02T09:54:09;9.52;;;7.38;;
11807;SDS011;5961;42.640;23.380;2023-07-02T09:56:36;9.88;;;7.15;;
11807;SDS011;5961;42.640;23.380;2023-07-02T09:59:04;9.68;;;7.15;;
11807;SDS011;5961;42.640;23.380;2023-07-02T10:01:30;9.05;;;6.93;;
11807;SDS011;5961;42.640;23.380;2023-07-02T10:03:57;9.35;;;6.40;;
11807;SDS011;5961;42.640;23.380;2023-07-02T10:06:24;7.95;;;6.50;;
11807;SDS011;5961;42.640;23.380;2023-07-02T10:08:53;9.10;;;6.32;;
11807;SDS011;5961;42.640;23.380;2023-07-02T10:11:27;8.40;;;5.85;;
11807;SDS011;5961;42.640;23.380;2023-07-02T10:13:59;8.07;;;6.80;;
11807;SDS011;5961;42.640;23.380;2023-07-02T10:16:26;9.73;;;6.57;;
11807;SDS011;5961;42.640;23.380;2023-07-02T10:18:53;9.07;;;6.78;;
11807;SDS011;5961;42.640;23.380;2023-07-02T10:21:20;10.77;;;7.05;;
11807;SDS011;5961;42.640;23.380;2023-07-02T10:23:46;9.57;;;6.28;;
11807;SDS011;5961;42.640;23.380;2023-07-02T10:26:13;11.27;;;7.07;;
11807;SDS011;5961;42.640;23.380;2023-07-02T10:28:43;9.40;;;6.97;;
11807;SDS011;5961;42.640;23.380;2023-07-02T10:31:21;8.88;;;6.90;;
11807;SDS011;5961;42.640;23.380;2023-07-02T10:33:48;11.57;;;8.05;;
11807;SDS011;5961;42.640;23.380;2023-07-02T10:36:18;11.65;;;7.55;;
11807;SDS011;5961;42.640;23.380;2023-07-02T10:38:46;9.48;;;6.80;;
11807;SDS011;5961;42.640;23.380;2023-07-02T10:41:22;7.85;;;6.05;;
11807;SDS011;5961;42.640;23.380;2023-07-02T10:43:51;6.75;;;6.00;;
11807;SDS011;5961;42.640;23.380;2023-07-02T10:46:18;7.03;;;5.72;;
11807;SDS011;5961;42.640;23.380;2023-07-02T10:48:50;9.05;;;6.18;;
11807;SDS011;5961;42.640;23.380;2023-07-02T10:51:18;9.32;;;5.90;;
11807;SDS011;5961;42.640;23.380;2023-07-02T10:53:44;11.32;;;6.68;;
11807;SDS011;5961;42.640;23.380;2023-07-02T10:56:15;9.20;;;5.63;;
11807;SDS011;5961;42.640;23.380;2023-07-02T10:58:42;8.63;;;6.18;;
11807;SDS011;5961;42.640;23.380;2023-07-02T11:01:10;8.77;;;5.97;;
11807;SDS011;5961;42.640;23.380;2023-07-02T11:03:37;9.02;;;6.10;;
11807;SDS011;5961;42.640;23.380;2023-07-02T11:06:04;6.72;;;5.05;;
11807;SDS011;5961;42.640;23.380;2023-07-02T11:08:34;8.07;;;6.20;;
11807;SDS011;5961;42.640;23.380;2023-07-02T11:11:07;7.82;;;5.88;;
11807;SDS011;5961;42.640;23.380;2023-07-02T11:13:34;9.45;;;5.90;;
11807;SDS011;5961;42.640;23.380;2023-07-02T11:16:18;7.55;;;5.82;;
11807;SDS011;5961;42.640;23.380;2023-07-02T11:18:47;9.77;;;5.93;;
11807;SDS011;5961;42.640;23.380;2023-07-02T11:21:14;7.40;;;5.53;;
11807;SDS011;5961;42.640;23.380;2023-07-02T11:23:41;11.07;;;6.75;;
11807;SDS011;5961;42.640;23.380;2023-07-02T11:26:08;6.78;;;6.05;;
11807;SDS011;5961;42.640;23.380;2023-07-02T11:28:35;7.75;;;6.35;;
11807;SDS011;5961;42.640;23.380;2023-07-02T11:31:02;9.85;;;6.00;;
11807;SDS011;5961;42.640;23.380;2023-07-02T11:33:35;7.78;;;5.85;;
11807;SDS011;5961;42.640;23.380;2023-07-02T11:36:03;9.63;;;6.85;;
11807;SDS011;5961;42.640;23.380;2023-07-02T11:38:30;9.50;;;6.97;;
11807;SDS011;5961;42.640;23.380;2023-07-02T11:40:57;9.25;;;6.20;;
11807;SDS011;5961;42.640;23.380;2023-07-02T11:43:24;8.63;;;6.30;;
11807;SDS011;5961;42.640;23.380;2023-07-02T11:45:51;8.23;;;6.72;;
11807;SDS011;5961;42.640;23.380;2023-07-02T11:48:18;11.35;;;8.38;;
11807;SDS011;5961;42.640;23.380;2023-07-02T11:50:46;7.50;;;5.28;;
11807;SDS011;5961;42.640;23.380;2023-07-02T11:53:13;6.78;;;5.18;;
11807;SDS011;5961;42.640;23.380;2023-07-02T11:55:39;8.00;;;4.95;;
11807;SDS011;5961;42.640;23.380;2023-07-02T11:58:06;8.32;;;5.53;;
11807;SDS011;5961;42.640;23.380;2023-07-02T12:00:33;8.45;;;4.90;;
11807;SDS011;5961;42.640;23.380;2023-07-02T12:02:59;6.75;;;4.88;;
11807;SDS011;5961;42.640;23.380;2023-07-02T12:05:26;8.60;;;5.50;;
11807;SDS011;5961;42.640;23.380;2023-07-02T12:07:54;11.52;;;4.95;;
11807;SDS011;5961;42.640;23.380;2023-07-02T12:10:21;6.63;;;5.35;;
11807;SDS011;5961;42.640;23.380;2023-07-02T12:12:47;5.78;;;4.70;;
11807;SDS011;5961;42.640;23.380;2023-07-02T12:15:14;7.20;;;4.85;;
11807;SDS011;5961;42.640;23.380;2023-07-02T12:17:41;6.65;;;4.72;;
11807;SDS011;5961;42.640;23.380;2023-07-02T12:20:08;6.53;;;4.60;;
11807;SDS011;5961;42.640;23.380;2023-07-02T12:22:35;5.38;;;4.60;;
11807;SDS011;5961;42.640;23.380;2023-07-02T12:25:04;6.07;;;4.45;;
11807;SDS011;5961;42.640;23.380;2023-07-02T12:27:31;5.80;;;4.50;;
11807;SDS011;5961;42.640;23.380;2023-07-02T12:29:58;5.22;;;4.57;;
11807;SDS011;5961;42.640;23.380;2023-07-02T12:32:25;4.10;;;3.70;;
11807;SDS011;5961;42.640;23.380;2023-07-02T12:34:52;5.53;;;4.38;;
11807;SDS011;5961;42.640;23.380;2023-07-02T12:37:18;8.57;;;4.70;;
11807;SDS011;5961;42.640;23.380;2023-07-02T12:39:45;5.15;;;4.45;;
11807;SDS011;5961;42.640;23.380;2023-07-02T12:42:14;5.80;;;4.82;;
11807;SDS011;5961;42.640;23.380;2023-07-02T12:44:40;6.07;;;5.05;;
11807;SDS011;5961;42.640;23.380;2023-07-02T12:47:07;6.88;;;4.70;;
11807;SDS011;5961;42.640;23.380;2023-07-02T12:49:34;6.25;;;5.10;;
11807;SDS011;5961;42.640;23.380;2023-07-02T12:52:00;5.78;;;4.85;;
11807;SDS011;5961;42.640;23.380;2023-07-02T12:54:27;7.05;;;5.20;;
11807;SDS011;5961;42.640;23.380;2023-07-02T12:56:54;7.30;;;5.68;;
11807;SDS011;5961;42.640;23.380;2023-07-02T12:59:22;9.00;;;5.38;;
11807;SDS011;5961;42.640;23.380;2023-07-02T13:01:49;7.57;;;6.05;;
11807;SDS011;5961;42.640;23.380;2023-07-02T13:04:15;7.20;;;5.63;;
11807;SDS011;5961;42.640;23.380;2023-07-02T13:06:42;7.03;;;5.05;;
11807;SDS011;5961;42.640;23.380;2023-07-02T13:09:10;6.97;;;6.22;;
11807;SDS011;5961;42.640;23.380;2023-07-02T13:11:37;6.20;;;5.30;;
11807;SDS011;5961;42.640;23.380;2023-07-02T13:14:04;7.90;;;5.30;;
11807;SDS011;5961;42.640;23.380;2023-07-02T13:16:32;7.97;;;5.88;;
11807;SDS011;5961;42.640;23.380;2023-07-02T13:18:58;8.27;;;5.68;;
11807;SDS011;5961;42.640;23.380;2023-07-02T13:21:26;6.78;;;5.75;;
11807;SDS011;5961;42.640;23.380;2023-07-02T13:23:53;6.97;;;5.07;;
11807;SDS011;5961;42.640;23.380;2023-07-02T13:26:20;7.18;;;5.20;;
11807;SDS011;5961;42.640;23.380;2023-07-02T13:28:46;5.80;;;4.93;;
11807;SDS011;5961;42.640;23.380;2023-07-02T13:31:13;6.45;;;5.75;;
11807;SDS011;5961;42.640;23.380;2023-07-02T13:33:42;6.40;;;4.95;;
11807;SDS011;5961;42.640;23.380;2023-07-02T13:36:10;10.13;;;5.18;;
11807;SDS011;5961;42.640;23.380;2023-07-02T13:38:36;7.32;;;5.55;;
11807;SDS011;5961;42.640;23.380;2023-07-02T13:41:03;6.90;;;5.60;;
11807;SDS011;5961;42.640;23.380;2023-07-02T13:43:30;5.40;;;4.75;;
11807;SDS011;5961;42.640;23.380;2023-07-02T13:45:57;11.13;;;6.10;;
11807;SDS011;5961;42.640;23.380;2023-07-02T13:48:24;5.93;;;5.32;;
11807;SDS011;5961;42.640;23.380;2023-07-02T13:50:52;6.05;;;5.38;;
11807;SDS011;5961;42.640;23.380;2023-07-02T13:53:19;11.57;;;6.65;;
11807;SDS011;5961;42.640;23.380;2023-07-02T13:55:45;7.90;;;5.53;;
11807;SDS011;5961;42.640;23.380;2023-07-02T13:58:12;6.80;;;5.88;;
11807;SDS011;5961;42.640;23.380;2023-07-02T14:00:40;7.68;;;6.00;;
11807;SDS011;5961;42.640;23.380;2023-07-02T14:03:07;9.23;;;5.50;;
11807;SDS011;5961;42.640;23.380;2023-07-02T14:05:34;7.07;;;5.70;;
11807;SDS011;5961;42.640;23.380;2023-07-02T14:08:01;8.10;;;5.60;;
11807;SDS011;5961;42.640;23.380;2023-07-02T14:10:27;7.93;;;6.10;;
11807;SDS011;5961;42.640;23.380;2023-07-02T14:12:54;8.25;;;6.35;;
11807;SDS011;5961;42.640;23.380;2023-07-02T14:15:21;8.13;;;5.57;;
11807;SDS011;5961;42.640;23.380;2023-07-02T14:17:49;8.85;;;5.70;;
11807;SDS011;5961;42.640;23.380;2023-07-02T14:20:16;8.70;;;6.32;;
11807;SDS011;5961;42.640;23.380;2023-07-02T14:22:43;7.95;;;6.10;;
11807;SDS011;5961;42.640;23.380;2023-07-02T14:25:10;6.90;;;5.72;;
11807;SDS011;5961;42.640;23.380;2023-07-02T14:27:37;6.82;;;5.72;;
11807;SDS011;5961;42.640;23.380;2023-07-02T14:30:04;9.13;;;5.68;;
11807;SDS011;5961;42.640;23.380;2023-07-02T14:32:33;7.28;;;5.78;;
11807;SDS011;5961;42.640;23.380;2023-07-02T14:35:02;8.40;;;6.53;;
11807;SDS011;5961;42.640;23.380;2023-07-02T14:37:29;7.82;;;5.82;;
11807;SDS011;5961;42.640;23.380;2023-07-02T14:39:56;8.73;;;5.93;;
11807;SDS011;5961;42.640;23.380;2023-07-02T14:42:23;8.80;;;6.32;;